Time;durP1;ratioP1;P1;durP2;ratioP2;P2;SDS_P1;SDS_P2;PMS_P1;PMS_P2;Temp;Humidity;BMP_temperature;BMP_pressure;BME280_temperature;BME280_humidity;BME280_pressure;Samples;Min_cycle;Max_cycle;Signal;HPM_P1;HPM_P2
2023/05/01 00:01:52;;;;;;;0.90;0.90;;;;;;;11.91;99.46;96883.84;5029888;28;20060;-57
2023/05/01 00:04:21;;;;;;;0.90;0.90;;;;;;;11.64;99.08;96826.91;5028750;28;20087;-57
2023/05/01 00:06:48;;;;;;;1.00;1.00;;;;;;;11.94;100.00;96877.53;5030352;28;20690;-57
2023/05/01 00:09:15;;;;;;;0.90;0.90;;;;;;;11.39;99.81;96809.19;5030596;28;20049;-57
2023/05/01 00:11:41;;;;;;;1.10;1.10;;;;;;;11.86;99.47;96878.63;5030667;28;20049;-59
2023/05/01 00:14:08;;;;;;;1.00;1.00;;;;;;;11.85;99.42;96871.50;5030053;28;20089;-57
2023/05/01 00:16:35;;;;;;;0.90;0.90;;;;;;;11.69;99.75;96879.28;5030207;28;20103;-58
2023/05/01 00:19:03;;;;;;;0.90;0.90;;;;;;;11.88;96.51;96876.28;5030022;28;20080;-58
2023/05/01 00:21:30;;;;;;;0.93;0.93;;;;;;;11.77;96.99;96880.94;5030231;28;20577;-59
2023/05/01 00:23:56;;;;;;;0.90;0.90;;;;;;;11.75;97.25;96873.00;5030577;28;20153;-56
2023/05/01 00:26:27;;;;;;;0.90;0.90;;;;;;;11.68;97.87;96866.59;5030478;28;20060;-56
2023/05/01 00:28:54;;;;;;;0.90;0.90;;;;;;;11.46;98.45;96845.34;5030158;28;20486;-56
2023/05/01 00:31:22;;;;;;;0.98;0.98;;;;;;;11.51;96.06;96861.59;5030174;28;20115;-59
2023/05/01 00:33:49;;;;;;;0.90;0.90;;;;;;;11.36;97.34;96859.88;5029846;28;20490;-57
2023/05/01 00:36:15;;;;;;;0.90;0.90;;;;;;;11.22;97.31;96815.38;5025245;28;20053;-59
2023/05/01 00:38:42;;;;;;;0.90;0.90;;;;;;;11.49;97.27;96886.16;5010214;28;20108;-57
2023/05/01 00:41:09;;;;;;;1.00;1.00;;;;;;;11.38;98.33;96880.50;5008618;28;20136;-57
2023/05/01 00:43:35;;;;;;;0.90;0.90;;;;;;;11.27;99.21;96873.25;5009888;28;20615;-57
2023/05/01 00:46:02;;;;;;;0.90;0.90;;;;;;;11.30;99.89;96883.56;5001372;28;20347;-60
2023/05/01 00:48:30;;;;;;;0.88;0.88;;;;;;;11.20;100.00;96884.25;5010302;28;20096;-56
2023/05/01 00:50:57;;;;;;;0.85;0.85;;;;;;;11.21;99.81;96877.50;5009731;28;20112;-56
2023/05/01 00:53:25;;;;;;;0.90;0.90;;;;;;;10.67;100.00;96812.34;5010172;28;20053;-57
2023/05/01 00:55:53;;;;;;;0.80;0.80;;;;;;;10.80;100.00;96853.63;5010075;28;20085;-57
2023/05/01 00:58:19;;;;;;;0.88;0.88;;;;;;;10.87;100.00;96854.56;5010458;28;20049;-56
2023/05/01 01:00:48;;;;;;;0.80;0.80;;;;;;;11.05;100.00;96882.50;5010253;28;20483;-58
2023/05/01 01:03:15;;;;;;;0.90;0.90;;;;;;;11.05;100.00;96882.50;5017672;28;20053;-57
2023/05/01 01:05:50;;;;;;;0.90;0.90;;;;;;;10.91;100.00;96893.41;5026702;28;20160;-56
2023/05/01 01:08:32;;;;;;;0.80;0.80;;;;;;;10.73;100.00;96898.69;5026945;28;20084;-58
2023/05/01 01:11:24;;;;;;;0.80;0.80;;;;;;;10.63;100.00;96908.44;5026872;28;20057;-56
2023/05/01 01:14:21;;;;;;;0.80;0.80;;;;;;;10.44;100.00;96919.63;5026701;28;20827;-56
2023/05/01 01:17:02;;;;;;;0.82;0.82;;;;;;;10.54;100.00;96918.97;5024943;28;20056;-60
2023/05/01 01:19:35;;;;;;;0.90;0.90;;;;;;;10.62;100.00;96920.69;5041438;28;20118;-57
2023/05/01 01:22:10;;;;;;;0.88;0.88;;;;;;;10.58;100.00;96914.31;5026370;28;20499;-57
2023/05/01 01:24:52;;;;;;;0.80;0.80;;;;;;;10.55;100.00;96923.38;5026737;28;20077;-57
2023/05/01 01:27:47;;;;;;;0.80;0.80;;;;;;;10.68;100.00;96919.19;5026302;28;20073;-57
2023/05/01 01:30:35;;;;;;;0.90;0.90;;;;;;;10.69;100.00;96920.00;5026210;28;20061;-57
2023/05/01 01:33:27;;;;;;;0.82;0.82;;;;;;;10.66;100.00;96929.88;5026136;28;20505;-57
2023/05/01 01:35:56;;;;;;;0.80;0.80;;;;;;;10.63;100.00;96944.47;5024627;28;20420;-56
2023/05/01 01:38:36;;;;;;;0.90;0.90;;;;;;;10.29;100.00;96884.56;5026347;28;20452;-57
2023/05/01 01:41:08;;;;;;;0.80;0.80;;;;;;;10.58;100.00;96924.56;5026711;28;20053;-57
2023/05/01 01:43:42;;;;;;;0.80;0.80;;;;;;;10.59;100.00;96918.66;5026281;28;20085;-58
2023/05/01 01:46:10;;;;;;;0.80;0.80;;;;;;;10.65;100.00;96919.94;5026039;28;20058;-56
2023/05/01 01:48:42;;;;;;;0.90;0.90;;;;;;;10.47;100.00;96926.38;5025873;28;20072;-57
2023/05/01 01:51:13;;;;;;;0.80;0.80;;;;;;;9.27;100.00;96765.91;5025930;28;20567;-58
2023/05/01 01:53:42;;;;;;;0.80;0.80;;;;;;;9.94;100.00;96874.91;5026300;28;20376;-60
2023/05/01 01:56:09;;;;;;;0.80;0.80;;;;;;;10.34;100.00;96931.34;5024412;28;20080;-56
2023/05/01 01:58:38;;;;;;;0.90;0.90;;;;;;;9.70;100.00;96873.31;5025702;28;20401;-59
2023/05/01 02:01:06;;;;;;;0.80;0.80;;;;;;;9.91;100.00;96879.19;5025770;28;20084;-58
2023/05/01 02:03:34;;;;;;;0.70;0.70;;;;;;;10.15;100.00;96928.66;5025414;28;20516;-57
2023/05/01 02:06:04;;;;;;;0.80;0.80;;;;;;;10.09;100.00;96919.06;5025747;28;20064;-59
2023/05/01 02:08:31;;;;;;;0.80;0.80;;;;;;;10.21;100.00;96921.63;5025865;28;20147;-59
2023/05/01 02:10:59;;;;;;;0.90;0.90;;;;;;;10.20;100.00;96914.50;5024042;28;20092;-58
2023/05/01 02:13:30;;;;;;;0.80;0.80;;;;;;;10.04;100.00;96922.09;5025127;28;20515;-57
2023/05/01 02:16:01;;;;;;;0.70;0.70;;;;;;;10.03;100.00;96914.97;5025494;28;20057;-59
2023/05/01 02:18:30;;;;;;;0.80;0.80;;;;;;;9.80;100.00;96933.53;5024812;28;20442;-57
2023/05/01 02:20:58;;;;;;;0.80;0.80;;;;;;;9.84;100.00;96922.53;5023850;28;20045;-55
2023/05/01 02:23:27;;;;;;;0.70;0.70;;;;;;;9.72;100.00;96937.34;5023991;28;20533;-56
2023/05/01 02:25:56;;;;;;;0.77;0.77;;;;;;;9.29;100.00;96863.06;5025486;28;20125;-57
2023/05/01 02:28:25;;;;;;;0.77;0.77;;;;;;;9.79;100.00;96937.47;5025390;28;20061;-56
2023/05/01 02:30:52;;;;;;;0.80;0.80;;;;;;;9.23;100.00;96864.53;5025437;28;20053;-55
2023/05/01 02:33:19;;;;;;;0.80;0.80;;;;;;;9.70;100.00;96941.63;5023614;28;20046;-56
2023/05/01 02:35:48;;;;;;;0.70;0.70;;;;;;;9.59;100.00;96940.66;5024820;28;20053;-56
2023/05/01 02:38:15;;;;;;;0.70;0.70;;;;;;;9.43;100.00;96946.28;5023855;28;20128;-56
2023/05/01 02:40:52;;;;;;;0.77;0.77;;;;;;;8.84;100.00;96869.28;5022327;28;20057;-56
2023/05/01 02:43:21;;;;;;;0.80;0.80;;;;;;;9.28;100.00;96944.38;5023646;28;20053;-59
2023/05/01 02:45:50;;;;;;;0.80;0.80;;;;;;;9.18;100.00;96950.50;5023423;28;20234;-56
2023/05/01 02:48:24;;;;;;;0.70;0.70;;;;;;;9.26;100.00;96968.84;5022158;28;20053;-57
2023/05/01 02:50:51;;;;;;;;;;;;;;;9.21;100.00;96949.78;5023828;28;20057;-56
2023/05/01 02:53:18;;;;;;;0.70;0.70;;;;;;;9.08;100.00;96956.59;5023935;28;20023;-56
2023/05/01 02:55:45;;;;;;;0.77;0.77;;;;;;;9.05;100.00;96949.84;5024849;28;20118;-56
2023/05/01 02:58:19;;;;;;;0.80;0.80;;;;;;;9.17;100.00;96960.75;5023037;28;20060;-57
2023/05/01 03:00:48;;;;;;;;;;;;;;;9.27;100.00;96961.31;5025371;28;20127;-58
2023/05/01 03:03:15;;;;;;;0.60;0.60;;;;;;;9.02;100.00;96969.09;5024453;28;19925;-56
2023/05/01 03:05:42;;;;;;;0.70;0.70;;;;;;;9.12;100.00;96974.03;5024876;28;20110;-58
2023/05/01 03:08:09;;;;;;;0.80;0.80;;;;;;;9.11;100.00;96944.81;5009224;28;20507;-56
2023/05/01 03:10:38;;;;;;;0.70;0.70;;;;;;;8.94;100.00;96929.47;5024304;28;20087;-56
2023/05/01 03:13:05;;;;;;;0.70;0.70;;;;;;;9.19;100.00;96957.63;5024238;28;20049;-58
2023/05/01 03:15:31;;;;;;;0.77;0.77;;;;;;;9.10;100.00;96937.69;5022909;28;20590;-56
2023/05/01 03:17:58;;;;;;;0.80;0.80;;;;;;;9.33;100.00;96968.16;5023892;28;20631;-55
2023/05/01 03:20:25;;;;;;;0.70;0.70;;;;;;;9.33;100.00;96979.22;5024251;28;20110;-56
2023/05/01 03:22:52;;;;;;;0.77;0.77;;;;;;;9.39;100.00;96973.03;5024173;28;20053;-56
2023/05/01 03:25:19;;;;;;;0.80;0.80;;;;;;;9.47;100.00;96980.31;5022232;28;20155;-56
2023/05/01 03:27:46;;;;;;;0.70;0.70;;;;;;;9.49;100.00;96977.97;5023840;28;20057;-57
2023/05/01 03:30:12;;;;;;;0.80;0.80;;;;;;;9.55;100.00;96982.03;5023898;28;20140;-57
2023/05/01 03:32:39;;;;;;;0.70;0.70;;;;;;;9.49;100.00;96985.47;5024096;28;20479;-58
2023/05/01 03:35:06;;;;;;;0.80;0.80;;;;;;;9.59;100.00;96976.59;5024183;28;20476;-56
2023/05/01 03:37:33;;;;;;;0.73;0.73;;;;;;;9.67;100.00;96990.22;5023841;28;20076;-57
2023/05/01 03:39:59;;;;;;;0.80;0.80;;;;;;;9.31;98.90;96940.88;5022318;28;20136;-56
2023/05/01 03:42:26;;;;;;;0.77;0.77;;;;;;;9.67;100.00;96990.22;5024026;28;20049;-56
2023/05/01 03:44:53;;;;;;;0.80;0.80;;;;;;;9.67;99.69;96990.22;5023648;28;20050;-56
2023/05/01 03:47:19;;;;;;;0.80;0.80;;;;;;;9.64;100.00;96990.13;5024061;28;20057;-57
2023/05/01 03:49:46;;;;;;;0.80;0.80;;;;;;;9.69;99.85;96998.91;5023621;28;20107;-57
2023/05/01 03:52:13;;;;;;;0.80;0.80;;;;;;;9.73;98.70;97010.06;5022549;28;20122;-59
2023/05/01 03:54:40;;;;;;;0.80;0.80;;;;;;;9.58;97.70;96970.25;5022586;28;20092;-56
2023/05/01 03:57:06;;;;;;;0.80;0.80;;;;;;;9.89;99.05;97003.28;5022512;28;20132;-57
2023/05/01 03:59:34;;;;;;;0.80;0.80;;;;;;;9.89;98.41;97003.28;5023685;28;20053;-57
2023/05/01 04:02:01;;;;;;;0.80;0.80;;;;;;;10.00;98.68;97004.28;5024534;28;20436;-57
2023/05/01 04:04:28;;;;;;;0.73;0.73;;;;;;;9.60;96.74;96933.94;5024619;28;20045;-57
2023/05/01 04:06:55;;;;;;;0.80;0.80;;;;;;;10.14;96.53;97007.31;5021937;28;20179;-58
2023/05/01 04:09:22;;;;;;;0.80;0.80;;;;;;;10.13;97.04;97010.47;5023454;28;20436;-57
2023/05/01 04:11:49;;;;;;;0.80;0.80;;;;;;;10.18;97.14;97010.16;5024162;28;20042;-58
2023/05/01 04:14:15;;;;;;;0.90;0.90;;;;;;;10.29;97.01;97017.47;5023276;28;20095;-57
2023/05/01 04:16:42;;;;;;;0.80;0.80;;;;;;;10.25;97.95;97022.16;5023785;28;20065;-57
2023/05/01 04:19:09;;;;;;;0.80;0.80;;;;;;;8.03;96.67;96645.19;5022100;28;20045;-57
2023/05/01 04:21:36;;;;;;;0.80;0.80;;;;;;;10.53;95.87;97011.56;5022352;28;20057;-57
2023/05/01 04:24:02;;;;;;;0.80;0.80;;;;;;;10.50;94.99;97023.38;5023510;28;20141;-59
2023/05/01 04:26:29;;;;;;;0.80;0.80;;;;;;;10.43;96.21;97017.72;5024027;28;20061;-56
2023/05/01 04:28:56;;;;;;;0.90;0.90;;;;;;;10.50;97.14;97020.59;5023473;28;20046;-56
2023/05/01 04:31:22;;;;;;;0.90;0.90;;;;;;;10.73;96.18;97017.00;5023789;28;20068;-58
2023/05/01 04:33:49;;;;;;;0.80;0.80;;;;;;;10.85;96.55;97027.88;5023416;28;20062;-57
2023/05/01 04:36:16;;;;;;;0.82;0.82;;;;;;;11.03;95.42;97024.22;5022151;28;20117;-57
2023/05/01 04:38:43;;;;;;;0.90;0.90;;;;;;;11.25;93.87;97033.63;5024961;28;20566;-57
2023/05/01 04:41:10;;;;;;;0.90;0.90;;;;;;;11.41;94.24;97017.63;5027505;28;20053;-57
2023/05/01 04:43:36;;;;;;;0.90;0.90;;;;;;;11.46;93.13;96986.78;5027097;28;20158;-57
2023/05/01 04:46:03;;;;;;;0.90;0.90;;;;;;;12.02;90.25;97020.75;5027335;28;20053;-56
2023/05/01 04:48:30;;;;;;;0.95;0.95;;;;;;;11.95;89.61;97049.25;5025329;28;20049;-56
2023/05/01 04:50:57;;;;;;;1.00;1.00;;;;;;;11.43;89.63;96940.41;5026699;28;20049;-58
2023/05/01 04:53:24;;;;;;;0.90;0.90;;;;;;;12.43;88.26;97030.72;5027266;28;20497;-60
2023/05/01 04:55:50;;;;;;;0.90;0.90;;;;;;;12.56;86.35;96990.34;5026494;28;20061;-56
2023/05/01 04:58:17;;;;;;;0.90;0.90;;;;;;;13.30;85.46;97040.97;5026658;28;20594;-58
2023/05/01 05:00:43;;;;;;;1.00;1.00;;;;;;;13.49;82.09;97038.72;5026740;28;20475;-57
2023/05/01 05:03:10;;;;;;;1.02;1.02;;;;;;;13.74;80.61;97035.25;5025274;28;20065;-59
2023/05/01 05:05:37;;;;;;;1.20;1.20;;;;;;;14.06;77.86;97039.75;5026007;28;20492;-57
2023/05/01 05:08:05;;;;;;;1.40;1.40;;;;;;;14.32;76.67;97038.66;5026634;28;20053;-58
2023/05/01 05:10:31;;;;;;;1.10;1.10;;;;;;;14.29;75.36;97042.25;5026277;28;20045;-58
2023/05/01 05:12:58;;;;;;;1.30;1.30;;;;;;;14.23;76.52;97010.31;5024771;28;20107;-56
2023/05/01 05:15:25;;;;;;;1.15;1.15;;;;;;;14.54;76.90;97045.88;5024889;28;20198;-59
2023/05/01 05:17:51;;;;;;;1.17;1.17;;;;;;;14.72;75.77;97049.47;5026410;28;20061;-57
2023/05/01 05:20:21;;;;;;;1.13;1.13;;;;;;;14.61;75.37;97026.34;5026376;28;20045;-57
2023/05/01 05:22:48;;;;;;;1.20;1.20;;;;;;;14.81;76.16;97053.44;5026570;28;20056;-59
2023/05/01 05:25:15;;;;;;;1.13;1.13;;;;;;;14.51;76.39;97004.84;5024972;28;20307;-57
2023/05/01 05:27:41;;;;;;;1.42;1.42;;;;;;;15.13;75.03;97053.44;5026429;28;20060;-57
2023/05/01 05:30:09;;;;;;;1.23;1.23;;;;;;;15.17;75.73;97068.22;5026311;28;20057;-57
2023/05/01 05:32:37;;;;;;;1.23;1.23;;;;;;;15.34;74.90;97031.09;5026661;28;20076;-58
2023/05/01 05:35:04;;;;;;;1.48;1.48;;;;;;;15.78;74.60;97045.38;5024825;28;20057;-57
2023/05/01 05:37:31;;;;;;;1.27;1.27;;;;;;;15.93;75.23;97046.91;5024712;28;20057;-59
2023/05/01 05:39:57;;;;;;;1.70;1.70;;;;;;;15.96;74.95;97048.94;5025972;28;20463;-57
2023/05/01 05:42:24;;;;;;;1.30;1.30;;;;;;;16.22;74.61;97051.19;5025844;28;20518;-57
2023/05/01 05:44:51;;;;;;;1.50;1.50;;;;;;;16.33;72.34;97054.72;5025757;28;20060;-57
2023/05/01 05:47:17;;;;;;;1.50;1.50;;;;;;;16.57;71.38;97062.22;5026001;28;20111;-57
2023/05/01 05:49:45;;;;;;;1.50;1.50;;;;;;;16.61;70.69;97049.00;5024941;28;20072;-59
2023/05/01 05:52:12;;;;;;;1.55;1.55;;;;;;;16.81;70.77;97073.63;5025544;28;20149;-56
2023/05/01 05:54:39;;;;;;;1.60;1.60;;;;;;;16.82;69.18;97059.25;5025538;28;20539;-57
2023/05/01 05:57:06;;;;;;;1.40;1.40;;;;;;;16.93;68.25;97059.97;5025337;28;20093;-59
2023/05/01 05:59:32;;;;;;;1.60;1.60;;;;;;;16.51;67.26;96993.94;5025237;28;20053;-56
2023/05/01 06:01:59;;;;;;;1.50;1.50;;;;;;;17.02;66.95;97067.91;5024768;28;20486;-58
2023/05/01 06:04:26;;;;;;;1.70;1.70;;;;;;;16.76;65.75;97010.53;5025564;28;20607;-57
2023/05/01 06:06:53;;;;;;;1.45;1.45;;;;;;;17.22;66.19;97071.72;5025139;28;20049;-58
2023/05/01 06:09:20;;;;;;;1.52;1.52;;;;;;;16.95;66.58;97034.34;5025363;28;20064;-57
2023/05/01 06:11:47;;;;;;;1.60;1.60;;;;;;;17.29;68.61;97071.69;5023867;28;20072;-56
2023/05/01 06:14:15;;;;;;;1.70;1.70;;;;;;;17.32;70.04;97077.25;5025396;28;20147;-58
2023/05/01 06:16:42;;;;;;;1.60;1.60;;;;;;;16.96;70.14;97003.16;5025244;28;20056;-58
2023/05/01 06:19:10;;;;;;;1.70;1.70;;;;;;;17.19;69.79;97039.75;5024999;28;20050;-56
2023/05/01 06:21:37;;;;;;;1.90;1.90;;;;;;;17.53;70.40;97070.69;5025246;28;20111;-56
2023/05/01 06:24:04;;;;;;;1.90;1.90;;;;;;;17.56;70.39;97075.47;5025264;28;20057;-58
2023/05/01 06:26:31;;;;;;;1.50;1.50;;;;;;;17.65;69.23;97079.38;5023066;28;20594;-56
2023/05/01 06:28:57;;;;;;;1.80;1.80;;;;;;;17.68;68.29;97086.13;5024664;28;20525;-57
2023/05/01 06:31:24;;;;;;;1.67;1.67;;;;;;;17.85;67.93;97076.72;5025051;28;20084;-57
2023/05/01 06:33:51;;;;;;;1.80;1.80;;;;;;;18.06;67.08;97084.91;5024823;28;20083;-57
2023/05/01 06:36:18;;;;;;;1.52;1.52;;;;;;;18.34;65.92;97092.97;5024730;28;20053;-57
2023/05/01 06:38:47;;;;;;;1.70;1.70;;;;;;;18.35;64.49;97091.78;5023396;28;20057;-57
2023/05/01 06:41:17;;;;;;;1.80;1.80;;;;;;;18.27;64.56;97042.59;5022780;28;20085;-57
2023/05/01 06:43:44;;;;;;;1.85;1.85;;;;;;;18.72;64.04;97091.69;5024300;28;20057;-57
2023/05/01 06:46:11;;;;;;;1.60;1.60;;;;;;;18.79;62.77;97097.22;5024728;28;20046;-57
2023/05/01 06:48:38;;;;;;;1.75;1.75;;;;;;;18.88;62.02;97094.69;5024518;28;20053;-58
2023/05/01 06:51:04;;;;;;;2.00;2.00;;;;;;;17.61;61.38;96882.50;5024711;28;20073;-57
2023/05/01 06:53:31;;;;;;;1.80;1.80;;;;;;;19.06;61.09;97083.97;5022979;28;20053;-58
2023/05/01 06:55:58;;;;;;;2.15;2.15;;;;;;;19.37;60.25;97093.94;5024645;28;20126;-57
2023/05/01 06:58:24;;;;;;;1.80;1.80;;;;;;;19.48;60.54;97100.16;5024665;28;20053;-56
2023/05/01 07:00:53;;;;;;;1.98;1.98;;;;;;;19.67;58.51;97106.25;5023549;28;20049;-56
2023/05/01 07:03:19;;;;;;;1.83;1.83;;;;;;;19.70;58.90;97105.41;5024063;28;20282;-57
2023/05/01 07:05:46;;;;;;;1.90;1.90;;;;;;;19.77;59.46;97102.47;5023958;28;20053;-59
2023/05/01 07:08:13;;;;;;;2.22;2.22;;;;;;;20.03;57.84;97110.03;5024090;28;20562;-56
2023/05/01 07:10:40;;;;;;;1.90;1.90;;;;;;;20.10;57.23;97112.69;5024092;28;20204;-58
2023/05/01 07:13:08;;;;;;;2.00;2.00;;;;;;;20.12;57.25;97111.03;5024224;28;20049;-56
2023/05/01 07:15:35;;;;;;;2.10;2.10;;;;;;;20.13;58.55;97117.47;5024208;28;20409;-59
2023/05/01 07:18:04;;;;;;;1.92;1.92;;;;;;;20.35;57.63;97110.22;5023638;28;20124;-57
2023/05/01 07:20:31;;;;;;;1.90;1.90;;;;;;;19.51;59.47;97121.00;5021760;28;20464;-56
2023/05/01 07:22:59;;;;;;;1.90;1.90;;;;;;;19.62;59.60;97126.44;5023477;28;20089;-57
2023/05/01 07:25:25;;;;;;;1.92;1.92;;;;;;;19.09;61.98;97099.97;5024081;28;20061;-57
2023/05/01 07:27:53;;;;;;;1.70;1.70;;;;;;;18.93;62.58;97034.44;5023989;28;20454;-56
2023/05/01 07:30:20;;;;;;;1.90;1.90;;;;;;;19.28;59.28;97062.00;5023716;28;20064;-58
2023/05/01 07:32:47;;;;;;;1.83;1.83;;;;;;;19.25;60.49;97125.38;5020469;28;20107;-58
2023/05/01 07:35:13;;;;;;;1.80;1.80;;;;;;;18.26;64.20;97097.09;5022967;28;20085;-57
2023/05/01 07:37:40;;;;;;;1.83;1.83;;;;;;;18.00;64.17;97097.81;5022044;28;20486;-56
2023/05/01 07:40:07;;;;;;;1.70;1.70;;;;;;;18.58;64.62;97125.56;5022123;28;20081;-59
2023/05/01 07:42:33;;;;;;;1.90;1.90;;;;;;;19.08;63.27;97129.25;5022357;28;20057;-57
2023/05/01 07:45:00;;;;;;;1.77;1.77;;;;;;;19.35;60.56;97121.66;5022484;28;20080;-58
2023/05/01 07:47:27;;;;;;;1.83;1.83;;;;;;;19.70;58.57;97116.66;5023516;28;20057;-57
2023/05/01 07:49:54;;;;;;;1.90;1.90;;;;;;;19.86;57.48;97097.06;5023406;28;20059;-56
2023/05/01 07:52:21;;;;;;;1.92;1.92;;;;;;;20.37;57.15;97127.47;5023301;28;20065;-57
2023/05/01 07:54:51;;;;;;;1.80;1.80;;;;;;;20.24;57.17;97085.13;5022519;28;20073;-59
2023/05/01 07:57:18;;;;;;;2.10;2.10;;;;;;;20.27;57.09;97069.38;5023193;28;20119;-58
2023/05/01 07:59:45;;;;;;;2.00;2.00;;;;;;;20.65;56.60;97121.25;5023675;28;20131;-57
2023/05/01 08:02:12;;;;;;;2.05;2.05;;;;;;;20.21;56.69;97085.19;5022120;28;20872;-57
2023/05/01 08:04:40;;;;;;;2.45;2.35;;;;;;;20.67;57.75;97118.81;5022232;28;20054;-59
2023/05/01 08:07:07;;;;;;;1.90;1.90;;;;;;;20.54;57.84;97086.91;5023156;28;20049;-58
2023/05/01 08:09:34;;;;;;;2.17;2.17;;;;;;;20.50;57.07;97114.34;5023775;28;20084;-56
2023/05/01 08:12:02;;;;;;;2.47;2.38;;;;;;;20.40;56.61;97132.22;5024065;28;20105;-57
2023/05/01 08:14:29;;;;;;;2.05;2.05;;;;;;;20.20;54.88;97049.84;5027459;28;20061;-57
2023/05/01 08:16:56;;;;;;;2.30;2.30;;;;;;;20.94;53.73;97133.50;5026931;28;20469;-57
2023/05/01 08:19:24;;;;;;;2.15;2.15;;;;;;;20.63;54.77;97113.25;5026098;28;20154;-56
2023/05/01 08:21:50;;;;;;;2.38;2.35;;;;;;;21.14;54.09;97125.81;5027575;28;20092;-56
2023/05/01 08:24:17;;;;;;;2.13;2.13;;;;;;;19.97;52.96;97002.88;5027372;28;20085;-57
2023/05/01 08:26:43;;;;;;;2.30;2.30;;;;;;;20.62;52.60;97077.06;5027761;28;20061;-57
2023/05/01 08:29:10;;;;;;;2.10;2.10;;;;;;;20.80;54.60;97100.78;5027071;28;20057;-58
2023/05/01 08:31:38;;;;;;;2.17;2.17;;;;;;;21.15;55.04;97130.22;5027717;28;20053;-57
2023/05/01 08:34:05;;;;;;;2.42;2.35;;;;;;;20.90;54.76;97135.59;5025651;28;20053;-59
2023/05/01 08:36:31;;;;;;;2.15;2.15;;;;;;;20.53;53.50;97040.28;5027573;28;20081;-57
2023/05/01 08:38:58;;;;;;;2.13;2.13;;;;;;;21.17;54.23;97141.03;5027310;28;20049;-56
2023/05/01 08:41:26;;;;;;;2.10;2.10;;;;;;;21.02;50.90;97139.78;5027462;28;20050;-59
2023/05/01 08:43:57;;;;;;;2.47;2.38;;;;;;;21.00;51.66;97137.41;5026913;28;20111;-56
2023/05/01 08:46:43;;;;;;;2.60;2.50;;;;;;;20.93;50.77;97148.78;5025745;28;20053;-55
2023/05/01 08:49:13;;;;;;;1.98;1.98;;;;;;;20.30;51.56;97102.28;5026499;28;20061;-57
2023/05/01 08:51:43;;;;;;;2.03;2.03;;;;;;;19.98;50.86;97142.25;5027183;28;20112;-56
2023/05/01 08:54:10;;;;;;;2.08;2.08;;;;;;;19.37;54.60;97118.41;5026644;28;20050;-57
2023/05/01 08:56:38;;;;;;;2.10;2.10;;;;;;;19.63;55.64;97151.31;5026826;28;20134;-56
2023/05/01 08:59:08;;;;;;;2.15;2.15;;;;;;;18.62;55.64;97075.78;5025220;28;20073;-56
2023/05/01 09:01:36;;;;;;;2.10;2.10;;;;;;;18.87;56.27;97154.06;5025416;28;20073;-58
2023/05/01 09:04:05;;;;;;;1.80;1.80;;;;;;;18.75;59.88;97068.41;5026494;28;20111;-59
2023/05/01 09:06:31;;;;;;;2.13;2.13;;;;;;;18.73;64.38;97118.53;5026472;28;20080;-59
2023/05/01 09:08:58;;;;;;;1.95;1.95;;;;;;;18.85;67.01;97150.88;5026443;28;20469;-59
2023/05/01 09:11:25;;;;;;;1.80;1.80;;;;;;;18.88;65.78;97145.22;5025184;28;20111;-57
2023/05/01 09:13:53;;;;;;;2.20;2.20;;;;;;;18.01;66.05;97152.66;5026397;28;20049;-56
2023/05/01 09:16:20;;;;;;;1.83;1.83;;;;;;;17.31;66.68;97130.88;5026783;28;20536;-57
2023/05/01 09:18:47;;;;;;;1.85;1.85;;;;;;;17.61;67.43;97156.22;5025235;28;20067;-58
2023/05/01 09:21:14;;;;;;;1.63;1.63;;;;;;;18.13;65.60;97149.31;5026750;28;20088;-59
2023/05/01 09:23:41;;;;;;;2.13;2.13;;;;;;;18.29;67.31;97152.34;5023805;28;20050;-56
2023/05/01 09:26:07;;;;;;;1.95;1.95;;;;;;;18.13;68.87;97154.13;5026749;28;20053;-58
2023/05/01 09:28:45;;;;;;;1.90;1.90;;;;;;;17.91;66.46;97091.88;5026114;28;20069;-58
2023/05/01 09:31:23;;;;;;;1.95;1.95;;;;;;;18.26;68.60;97161.59;5026635;28;20049;-58
2023/05/01 09:34:01;;;;;;;1.90;1.90;;;;;;;18.49;68.22;97161.75;5025722;28;20053;-57
2023/05/01 09:36:30;;;;;;;2.00;2.00;;;;;;;19.18;66.06;97164.81;5026242;28;20053;-58
2023/05/01 09:38:59;;;;;;;1.92;1.92;;;;;;;19.18;64.33;97105.84;5026076;28;20053;-58
2023/05/01 09:41:26;;;;;;;2.00;2.00;;;;;;;19.38;62.53;97168.56;5026352;28;20416;-58
2023/05/01 09:43:55;;;;;;;1.83;1.83;;;;;;;19.08;62.14;97171.38;5025941;28;20053;-57
2023/05/01 09:46:24;;;;;;;2.08;2.08;;;;;;;19.63;57.46;97173.81;5025966;28;20550;-59
2023/05/01 09:49:02;;;;;;;1.95;1.95;;;;;;;19.78;58.40;97177.94;5025192;28;20440;-57
2023/05/01 09:51:33;;;;;;;1.98;1.98;;;;;;;19.81;56.74;97187.53;5025930;28;20096;-60
2023/05/01 09:54:18;;;;;;;1.90;1.90;;;;;;;19.98;57.49;97190.03;5025851;28;20150;-58
2023/05/01 09:56:48;;;;;;;1.85;1.85;;;;;;;20.03;56.74;97181.13;5026106;28;20140;-58
2023/05/01 09:59:19;;;;;;;2.10;2.10;;;;;;;19.97;57.87;97176.41;5025709;28;20491;-57
2023/05/01 10:01:48;;;;;;;1.80;1.80;;;;;;;19.88;56.75;97193.06;5025292;28;20479;-58
2023/05/01 10:04:16;;;;;;;2.00;2.00;;;;;;;19.61;54.02;97206.34;5025366;28;20508;-59
2023/05/01 10:06:42;;;;;;;1.80;1.80;;;;;;;19.54;53.61;97210.88;5025785;28;20049;-56
2023/05/01 10:09:15;;;;;;;1.80;1.80;;;;;;;19.28;52.58;97208.06;5023964;28;20045;-56
2023/05/01 10:11:54;;;;;;;1.98;1.98;;;;;;;19.19;50.73;97225.38;5024214;28;20053;-57
2023/05/01 10:14:22;;;;;;;2.05;2.05;;;;;;;19.19;50.59;97216.97;5025589;28;20487;-56
2023/05/01 10:16:51;;;;;;;2.30;2.30;;;;;;;19.93;50.32;97209.44;5025300;28;20100;-56
2023/05/01 10:19:19;;;;;;;2.17;2.17;;;;;;;20.71;47.47;97209.59;5025478;28;20097;-57
2023/05/01 10:21:46;;;;;;;2.30;2.30;;;;;;;20.60;47.59;97204.19;5025602;28;20055;-56
2023/05/01 10:24:15;;;;;;;2.30;2.30;;;;;;;20.42;47.86;97214.22;5023647;28;20041;-56
2023/05/01 10:26:42;;;;;;;2.22;2.22;;;;;;;20.29;48.44;97214.03;5024043;28;20050;-56
2023/05/01 10:29:10;;;;;;;2.38;2.35;;;;;;;20.25;50.48;97170.31;5025207;28;20123;-59
2023/05/01 10:31:37;;;;;;;2.20;2.20;;;;;;;20.52;49.46;97182.22;5025186;28;20504;-58
2023/05/01 10:34:07;;;;;;;2.20;2.20;;;;;;;20.52;50.42;97216.81;5025085;28;20054;-57
2023/05/01 10:36:43;;;;;;;2.50;2.40;;;;;;;20.31;51.60;97219.25;5024587;28;20131;-57
2023/05/01 10:39:31;;;;;;;1.90;1.90;;;;;;;20.39;50.40;97226.34;5024883;28;20431;-57
2023/05/01 10:41:58;;;;;;;2.00;2.00;;;;;;;20.32;51.54;97223.63;5026994;28;20056;-56
2023/05/01 10:44:25;;;;;;;2.50;2.40;;;;;;;20.71;50.19;97229.31;5024430;28;20154;-57
2023/05/01 10:46:53;;;;;;;2.00;2.00;;;;;;;20.81;49.18;97219.88;5022640;28;20049;-57
2023/05/01 10:49:20;;;;;;;2.20;2.20;;;;;;;21.14;50.37;97221.59;5024256;28;20392;-56
2023/05/01 10:51:59;;;;;;;2.10;2.10;;;;;;;21.24;49.96;97220.59;5023615;28;20590;-57
2023/05/01 10:54:26;;;;;;;2.15;2.15;;;;;;;21.35;49.67;97215.50;5023386;28;20515;-57
2023/05/01 10:56:58;;;;;;;2.45;2.35;;;;;;;21.79;49.39;97220.53;5024902;28;20049;-59
2023/05/01 10:59:44;;;;;;;2.60;2.50;;;;;;;21.86;47.51;97208.28;5024684;28;20053;-57
2023/05/01 11:02:21;;;;;;;2.40;2.30;;;;;;;22.01;48.39;97221.59;5022877;28;20119;-57
2023/05/01 11:04:50;;;;;;;2.42;2.35;;;;;;;21.57;47.52;97222.25;5023193;28;20057;-58
2023/05/01 11:07:20;;;;;;;2.28;2.28;;;;;;;21.59;47.68;97225.41;5024284;28;20057;-58
2023/05/01 11:09:57;;;;;;;2.28;2.28;;;;;;;21.61;46.16;97222.94;5022996;28;20057;-59
2023/05/01 11:12:45;;;;;;;2.15;2.15;;;;;;;21.80;46.23;97224.94;5024435;28;20080;-57
2023/05/01 11:15:25;;;;;;;2.47;2.38;;;;;;;21.57;44.92;97227.88;5024065;28;20053;-56
2023/05/01 11:17:52;;;;;;;2.20;2.20;;;;;;;21.28;45.04;97178.22;5024407;28;20053;-57
2023/05/01 11:20:24;;;;;;;2.17;2.17;;;;;;;21.75;44.47;97236.75;5024047;28;20061;-57
2023/05/01 11:22:56;;;;;;;2.45;2.35;;;;;;;21.77;43.53;97203.25;5024617;28;20053;-58
2023/05/01 11:25:32;;;;;;;2.20;2.20;;;;;;;22.28;43.74;97244.69;5022588;28;20115;-57
2023/05/01 11:28:02;;;;;;;2.60;2.50;;;;;;;22.49;42.47;97232.81;5024018;28;20153;-56
2023/05/01 11:30:36;;;;;;;3.00;2.90;;;;;;;22.32;43.21;97234.09;5023652;28;20045;-59
2023/05/01 11:33:04;;;;;;;2.60;2.50;;;;;;;22.16;44.92;97236.94;5024112;28;20599;-56
2023/05/01 11:35:32;;;;;;;2.60;2.50;;;;;;;21.63;44.54;97293.00;5024142;28;20077;-60
2023/05/01 11:37:58;;;;;;;2.20;2.20;;;;;;;21.39;44.42;97252.84;5024026;28;20057;-57
2023/05/01 11:40:29;;;;;;;2.08;2.08;;;;;;;21.17;44.62;97240.47;5023819;28;20061;-57
2023/05/01 11:43:07;;;;;;;2.28;2.28;;;;;;;20.38;51.42;97248.03;5024283;28;20077;-59